Kalamazoo, MI

5:54 AM EST on February 09, 2016 (GMT -0500)
Lawndale Ave | | Change Station
CLOSE
Current Station
Personal Weather Station
Location: Kalamazoo, MI
Elevation: 801 ft
Nearby Weather Stations

Elev 801 ft 42.28 °N, 85.48 °W | Updated 1 second ago

Overcast
Overcast
30.6 °F
Feels Like 31 °F
N
2.0
Wind Variable Wind from NE
Gusts 4.9 mph

Today
High -- | Low -- °F
--% Chance of Precip.
Yesterday
High -- | Low -- °F
Precip. -- in
Pressure 29.60 in
Visibility 10.0 miles
Clouds Overcast 800 ft
Windchill 31 °F
Dew Point 26 °F
Humidity 83%
Rainfall 0.00 in
Snow Depth Not available.
7:46 AM 6:06 PM
New Moon, 1% visible
METAR KAZO 090953Z AUTO 33009KT 10SM OVC008 00/M02 A2957 RMK AO2 CIG 006V011 SLP022 T00001022
Pressure 29.60 in
Visibility 10.0 miles
Clouds Overcast 800 ft
Windchill 31 °F
Dew Point 26 °F
Humidity 83%
Rainfall 0.00 in
Snow Depth Not available.
7:46 AM 6:06 PM
New Moon, 1% visible
METAR KAZO 090953Z AUTO 33009KT 10SM OVC008 00/M02 A2957 RMK AO2 CIG 006V011 SLP022 T00001022

10-Day Weather Forecast

Almanac

Astronomy

Feb. 09, 2016 Rise Set
Actual Time
Civil Twilight
Nautical Twilight
Astronomical Twilight
Moon
Length of Visible Light
Length of Day
Tomorrow will be .
, % of the Moon is Illuminated

Today's Extremes

State Highs State Lows

Community

WunderPhotos

Upload Photos

1,891,565 photos uploaded!

WunderBlog® & News

Nearby

Air Quality

  Air Quality AQ Index Pollutant
Not available.

Snow Depth

Station Depth Elevation

Earthquake Activity

City Distance Mag. Time & Date
Minimum magnitude displayed is 2.5.

Coastal Water Temperatures

Place Temperature

Stations

Nearby Weather Stations

Station Location Temp. Windchill Dew Point Humidity Wind Precip. Elev Updated Type
                   

Watches & Warnings

There are currently no watches in effect.